Terminal Aerodrome Forecast
Issued by NWS

Home | Current Version | Previous Version | Text Only | Print | Product List | Glossary On
Versions: 1 2 3 4 5 6 7 8 9 10 11 12 13 14 15 16
000
FTAK31 PAJN 282300
TAFAPG
TAF
PAPG 282336Z 2900/2924 VRB03KT P6SM SKC
     FM291200 VRB05KT P6SM VCFG SCT150
     FM291500 09005KT P6SM BKN100
     FM292100 08007KT P6SM BKN700 PROB30 2921/2924 P6SM -SN OVC050
      AMD LTD TO CLD VIS AND WIND 2906/2915=

USA.gov is the U.S. government's official web portal to all federal, state and local government web resources and services.